Time,TemperatureF,DewpointF,PressureIn,WindDirection,WindDirectionDegrees,WindSpeedMPH,WindSpeedGustMPH,Humidity,HourlyPrecipIn,Conditions,Clouds,dailyrainin,SoftwareType,DateUTC
2013-09-18 00:01:00,79.2,74.3,29.93,NE,52,0.0,0.0,85,0.00,RA,OVC,0.00,WeatherDisplay:10.37,2013-09-18 04:01:00,
2013-09-18 00:06:00,79.0,74.1,29.93,NE,52,0.0,0.0,85,0.00,RA,OVC,0.00,WeatherDisplay:10.37,2013-09-18 04:06:00,
2013-09-18 00:11:00,78.8,73.9,29.93,NE,52,0.0,0.0,85,0.00,,OVC,0.00,WeatherDisplay:10.37,2013-09-18 04:11:00,
2013-09-18 00:16:00,78.8,73.9,29.93,NE,52,0.0,0.0,85,0.00,,OVC,0.00,WeatherDisplay:10.37,2013-09-18 04:16:00,
2013-09-18 00:21:00,78.6,74.1,29.93,NE,52,0.0,0.0,86,0.00,,OVC,0.00,WeatherDisplay:10.37,2013-09-18 04:21:00,
2013-09-18 00:26:00,78.5,74.0,29.93,NE,52,0.0,0.0,86,0.00,,OVC,0.00,WeatherDisplay:10.37,2013-09-18 04:26:00,
2013-09-18 00:31:00,78.5,74.3,29.92,NE,52,0.0,0.0,87,0.00,,OVC,0.00,WeatherDisplay:10.37,2013-09-18 04:31:00,
2013-09-18 00:36:00,78.3,74.1,29.92,NE,52,0.0,0.0,87,0.00,,OVC,0.00,WeatherDisplay:10.37,2013-09-18 04:36:00,
2013-09-18 00:41:00,78.3,74.1,29.92,NE,52,0.0,0.0,87,0.00,,OVC,0.00,WeatherDisplay:10.37,2013-09-18 04:41:00,
2013-09-18 00:46:00,78.3,74.1,29.92,NE,51,0.0,0.0,87,0.00,,OVC,0.00,WeatherDisplay:10.37,2013-09-18 04:46:00,
2013-09-18 00:51:00,78.3,74.1,29.92,NE,51,0.0,0.0,87,0.00,,OVC,0.00,WeatherDisplay:10.37,2013-09-18 04:51:00,
2013-09-18 00:57:00,78.3,74.1,29.92,NE,51,0.0,0.0,87,0.00,,OVC,0.00,WeatherDisplay:10.37,2013-09-18 04:57:00,
2013-09-18 01:02:00,78.3,74.1,29.92,NE,51,0.0,0.0,87,0.00,,OVC,0.00,WeatherDisplay:10.37,2013-09-18 05:02:00,
2013-09-18 01:07:00,78.5,74.3,29.92,NE,51,0.0,0.0,87,0.00,,OVC,0.00,WeatherDisplay:10.37,2013-09-18 05:07:00,
2013-09-18 01:12:00,78.5,74.3,29.92,NE,51,0.0,0.0,87,0.00,,OVC,0.00,WeatherDisplay:10.37,2013-09-18 05:12:00,
2013-09-18 01:17:00,78.5,74.3,29.92,NE,51,0.0,0.0,87,0.00,,OVC,0.00,WeatherDisplay:10.37,2013-09-18 05:17:00,
2013-09-18 01:22:00,78.5,74.3,29.92,NE,51,0.0,0.0,87,0.00,,OVC,0.00,WeatherDisplay:10.37,2013-09-18 05:22:00,
2013-09-18 01:27:00,78.5,74.3,29.92,NE,51,0.0,0.0,87,0.00,,OVC,0.00,WeatherDisplay:10.37,2013-09-18 05:27:00,
2013-09-18 01:31:00,78.3,74.1,29.91,NE,51,0.0,0.0,87,0.00,,OVC,0.00,WeatherDisplay:10.37,2013-09-18 05:31:00,
2013-09-18 01:36:00,78.3,74.1,29.91,NE,51,0.0,0.0,87,0.00,,OVC,0.00,WeatherDisplay:10.37,2013-09-18 05:36:00,
2013-09-18 01:41:00,78.3,74.1,29.91,NE,51,0.0,0.0,87,0.00,,OVC,0.00,WeatherDisplay:10.37,2013-09-18 05:41:00,
2013-09-18 01:46:00,78.3,74.1,29.91,NE,51,0.0,0.0,87,0.00,,OVC,0.00,WeatherDisplay:10.37,2013-09-18 05:46:00,
2013-09-18 01:51:00,78.3,74.1,29.91,NE,51,0.0,0.0,87,0.00,,OVC,0.00,WeatherDisplay:10.37,2013-09-18 05:51:00,
2013-09-18 01:56:00,78.3,74.1,29.91,NE,51,0.0,0.0,87,0.00,,OVC,0.00,WeatherDisplay:10.37,2013-09-18 05:56:00,
2013-09-18 02:01:00,78.3,74.1,29.90,NE,51,0.0,0.0,87,0.00,,OVC,0.00,WeatherDisplay:10.37,2013-09-18 06:01:00,
2013-09-18 02:06:00,78.1,73.9,29.90,NE,51,0.0,0.0,87,0.00,,OVC,0.00,WeatherDisplay:10.37,2013-09-18 06:06:00,
2013-09-18 02:11:00,78.1,73.9,29.90,NE,51,0.0,0.0,87,0.00,,OVC,0.00,WeatherDisplay:10.37,2013-09-18 06:11:00,
2013-09-18 02:16:00,77.9,74.1,29.90,NE,51,0.0,0.0,88,0.00,,OVC,0.00,WeatherDisplay:10.37,2013-09-18 06:16:00,
2013-09-18 02:21:00,77.9,74.1,29.90,NE,51,0.0,0.0,88,0.00,,OVC,0.00,WeatherDisplay:10.37,2013-09-18 06:21:00,
2013-09-18 02:26:00,77.9,74.4,29.90,NE,51,0.0,0.0,89,0.00,,OVC,0.00,WeatherDisplay:10.37,2013-09-18 06:26:00,
2013-09-18 02:31:00,77.7,74.2,29.90,NE,51,0.0,0.0,89,0.00,,OVC,0.00,WeatherDisplay:10.37,2013-09-18 06:31:00,
2013-09-18 02:36:00,77.6,74.1,29.90,NE,51,0.0,0.0,89,0.00,,OVC,0.00,WeatherDisplay:10.37,2013-09-18 06:36:00,
2013-09-18 02:41:00,77.7,74.2,29.90,NE,51,0.0,0.0,89,0.00,,OVC,0.00,WeatherDisplay:10.37,2013-09-18 06:41:00,
2013-09-18 02:46:00,77.6,74.1,29.89,NE,51,0.0,0.0,89,0.00,,OVC,0.00,WeatherDisplay:10.37,2013-09-18 06:46:00,
2013-09-18 02:51:00,77.6,74.1,29.89,NE,51,0.0,0.0,89,0.00,,OVC,0.00,WeatherDisplay:10.37,2013-09-18 06:51:00,
2013-09-18 02:56:00,77.6,74.1,29.89,NE,51,0.0,0.0,89,0.00,,OVC,0.00,WeatherDisplay:10.37,2013-09-18 06:56:00,
2013-09-18 03:01:00,77.4,74.2,29.89,NE,51,0.0,0.0,90,0.00,,OVC,0.00,WeatherDisplay:10.37,2013-09-18 07:01:00,
2013-09-18 03:06:00,77.4,74.2,29.89,NE,50,0.0,0.0,90,0.00,,OVC,0.00,WeatherDisplay:10.37,2013-09-18 07:06:00,
2013-09-18 03:11:00,77.2,74.0,29.89,NE,50,0.0,0.0,90,0.00,,OVC,0.00,WeatherDisplay:10.37,2013-09-18 07:11:00,
2013-09-18 03:16:00,77.2,74.0,29.89,NE,50,0.0,0.0,90,0.00,,OVC,0.00,WeatherDisplay:10.37,2013-09-18 07:16:00,
2013-09-18 03:21:00,77.4,74.2,29.89,NE,50,0.0,0.0,90,0.00,,OVC,0.00,WeatherDisplay:10.37,2013-09-18 07:21:00,
2013-09-18 03:26:00,77.2,74.0,29.89,NE,50,0.0,0.0,90,0.00,,OVC,0.00,WeatherDisplay:10.37,2013-09-18 07:26:00,
2013-09-18 03:31:00,77.2,74.0,29.88,NE,50,0.0,0.0,90,0.00,,OVC,0.00,WeatherDisplay:10.37,2013-09-18 07:31:00,
2013-09-18 03:36:00,77.0,74.2,29.88,NE,50,0.0,0.0,91,0.00,,OVC,0.00,WeatherDisplay:10.37,2013-09-18 07:36:00,
2013-09-18 03:41:00,77.0,74.2,29.88,NE,50,0.0,0.0,91,0.00,,OVC,0.00,WeatherDisplay:10.37,2013-09-18 07:41:00,
2013-09-18 03:46:00,77.0,74.2,29.88,NE,50,0.0,0.0,91,0.00,,OVC,0.00,WeatherDisplay:10.37,2013-09-18 07:46:00,
2013-09-18 03:51:00,76.8,74.0,29.88,NE,50,0.0,0.0,91,0.00,,OVC,0.00,WeatherDisplay:10.37,2013-09-18 07:51:00,
2013-09-18 03:56:00,76.8,74.0,29.88,NE,50,0.0,0.0,91,0.00,,OVC,0.00,WeatherDisplay:10.37,2013-09-18 07:56:00,
2013-09-18 04:01:00,76.8,74.0,29.88,NE,50,0.0,0.0,91,0.00,,OVC,0.00,WeatherDisplay:10.37,2013-09-18 08:01:00,
2013-09-18 04:06:00,76.8,74.0,29.88,NE,50,0.0,0.0,91,0.00,,OVC,0.00,WeatherDisplay:10.37,2013-09-18 08:06:00,
2013-09-18 04:11:00,76.7,73.9,29.88,NE,50,0.0,0.0,91,0.00,,OVC,0.00,WeatherDisplay:10.37,2013-09-18 08:11:00,
2013-09-18 04:16:00,76.7,73.9,29.88,NE,50,0.0,0.0,91,0.00,,OVC,0.00,WeatherDisplay:10.37,2013-09-18 08:16:00,
2013-09-18 04:21:00,76.7,73.9,29.88,NE,50,0.0,0.0,91,0.00,,OVC,0.00,WeatherDisplay:10.37,2013-09-18 08:21:00,
2013-09-18 04:26:00,76.7,74.2,29.88,NE,48,0.0,0.0,92,0.00,,OVC,0.00,WeatherDisplay:10.37,2013-09-18 08:26:00,
2013-09-18 04:31:00,76.7,74.2,29.88,NE,48,0.0,0.0,92,0.00,,OVC,0.00,WeatherDisplay:10.37,2013-09-18 08:31:00,
2013-09-18 04:36:00,76.5,74.0,29.88,NE,48,0.0,0.0,92,0.00,,OVC,0.00,WeatherDisplay:10.37,2013-09-18 08:36:00,
2013-09-18 04:41:00,76.5,74.0,29.88,NE,41,0.0,0.0,92,0.00,,OVC,0.00,WeatherDisplay:10.37,2013-09-18 08:41:00,
2013-09-18 04:46:00,76.7,74.2,29.88,NE,41,0.0,0.0,92,0.00,,OVC,0.00,WeatherDisplay:10.37,2013-09-18 08:46:00,
2013-09-18 04:52:00,76.7,74.2,29.88,NE,41,0.0,0.0,92,0.00,,OVC,0.00,WeatherDisplay:10.37,2013-09-18 08:52:00,
2013-09-18 04:57:00,76.7,74.2,29.88,NE,41,0.0,0.0,92,0.00,,OVC,0.00,WeatherDisplay:10.37,2013-09-18 08:57:00,
2013-09-18 05:02:00,76.7,74.2,29.88,NE,41,0.0,0.0,92,0.00,,OVC,0.00,WeatherDisplay:10.37,2013-09-18 09:02:00,
2013-09-18 05:07:00,76.7,74.2,29.88,NE,41,0.0,0.0,92,0.00,,OVC,0.00,WeatherDisplay:10.37,2013-09-18 09:07:00,
2013-09-18 05:12:00,76.7,74.2,29.88,NE,41,0.0,0.0,92,0.00,,OVC,0.00,WeatherDisplay:10.37,2013-09-18 09:12:00,
2013-09-18 05:17:00,76.7,74.2,29.88,NE,41,0.0,0.0,92,0.00,,OVC,0.00,WeatherDisplay:10.37,2013-09-18 09:17:00,
2013-09-18 05:22:00,76.7,74.2,29.88,NE,41,0.0,0.0,92,0.00,,OVC,0.00,WeatherDisplay:10.37,2013-09-18 09:22:00,
2013-09-18 05:27:00,76.7,74.2,29.88,NE,41,0.0,0.0,92,0.00,,OVC,0.00,WeatherDisplay:10.37,2013-09-18 09:27:00,
2013-09-18 05:32:00,76.7,74.2,29.88,NE,41,0.0,0.0,92,0.00,,OVC,0.00,WeatherDisplay:10.37,2013-09-18 09:32:00,
2013-09-18 05:37:00,76.7,74.2,29.88,NE,41,0.0,0.0,92,0.00,,OVC,0.00,WeatherDisplay:10.37,2013-09-18 09:37:00,
2013-09-18 05:42:00,76.8,74.3,29.88,NE,41,0.0,0.0,92,0.00,,OVC,0.00,WeatherDisplay:10.37,2013-09-18 09:42:00,
2013-09-18 05:47:00,76.8,74.3,29.89,NE,41,0.0,0.0,92,0.00,,OVC,0.00,WeatherDisplay:10.37,2013-09-18 09:47:00,
2013-09-18 05:52:00,76.8,74.3,29.89,NE,41,0.0,0.0,92,0.00,,OVC,0.00,WeatherDisplay:10.37,2013-09-18 09:52:00,
2013-09-18 05:57:00,76.7,74.2,29.89,NE,41,0.0,0.0,92,0.00,,OVC,0.00,WeatherDisplay:10.37,2013-09-18 09:57:00,
2013-09-18 06:02:00,76.8,74.6,29.89,NE,41,0.0,0.0,93,0.00,,OVC,0.00,WeatherDisplay:10.37,2013-09-18 10:02:00,
2013-09-18 06:07:00,76.8,74.6,29.89,NE,41,0.0,0.0,93,0.00,,OVC,0.00,WeatherDisplay:10.37,2013-09-18 10:07:00,
2013-09-18 06:12:00,76.8,74.3,29.89,NE,41,0.0,0.0,92,0.00,,OVC,0.00,WeatherDisplay:10.37,2013-09-18 10:12:00,
2013-09-18 06:17:00,76.8,74.3,29.90,NE,41,0.0,0.0,92,0.00,,OVC,0.00,WeatherDisplay:10.37,2013-09-18 10:17:00,
2013-09-18 06:22:00,76.7,74.2,29.90,NE,41,0.0,0.0,92,0.00,,OVC,0.00,WeatherDisplay:10.37,2013-09-18 10:22:00,
2013-09-18 06:27:00,76.7,74.5,29.90,NE,41,0.0,0.0,93,0.00,,OVC,0.00,WeatherDisplay:10.37,2013-09-18 10:27:00,
2013-09-18 06:32:00,76.7,74.5,29.90,NE,41,0.0,0.0,93,0.00,,OVC,0.00,WeatherDisplay:10.37,2013-09-18 10:32:00,
2013-09-18 06:37:00,76.5,74.3,29.90,NE,41,0.0,0.0,93,0.00,,OVC,0.00,WeatherDisplay:10.37,2013-09-18 10:37:00,
2013-09-18 06:42:00,76.7,74.5,29.90,NE,41,0.0,0.0,93,0.00,,OVC,0.00,WeatherDisplay:10.37,2013-09-18 10:42:00,
2013-09-18 06:47:00,76.7,74.5,29.91,NE,40,0.0,0.0,93,0.00,,OVC,0.00,WeatherDisplay:10.37,2013-09-18 10:47:00,
2013-09-18 06:52:00,76.8,74.6,29.91,NE,40,0.0,0.0,93,0.00,,OVC,0.00,WeatherDisplay:10.37,2013-09-18 10:52:00,
2013-09-18 06:57:00,76.7,74.5,29.91,North,360,0.0,0.0,93,0.00,,OVC,0.00,WeatherDisplay:10.37,2013-09-18 10:57:00,
2013-09-18 07:02:00,76.8,74.6,29.91,North,360,0.0,0.0,93,0.01,RA,OVC,0.01,WeatherDisplay:10.37,2013-09-18 11:02:00,
2013-09-18 07:07:00,76.8,74.6,29.91,NW,309,11.0,11.0,93,0.22,RA,OVC,0.24,WeatherDisplay:10.37,2013-09-18 11:07:00,
2013-09-18 07:12:00,76.8,74.6,29.91,NNW,331,8.1,0.0,93,0.36,RA,OVC,0.37,WeatherDisplay:10.37,2013-09-18 11:12:00,
2013-09-18 07:17:00,76.3,74.1,29.92,NW,304,0.0,0.0,93,0.48,RA,OVC,0.48,WeatherDisplay:10.37,2013-09-18 11:17:00,
2013-09-18 07:22:00,76.0,73.8,29.92,WNW,290,0.0,0.0,93,0.53,RA,OVC,0.54,WeatherDisplay:10.37,2013-09-18 11:22:00,
2013-09-18 07:27:00,75.8,73.9,29.92,WNW,290,0.0,0.0,94,0.56,RA,OVC,0.56,WeatherDisplay:10.37,2013-09-18 11:27:00,
2013-09-18 07:32:00,76.0,74.1,29.92,WNW,291,0.0,0.0,94,0.59,RA,OVC,0.59,WeatherDisplay:10.37,2013-09-18 11:32:00,
2013-09-18 07:37:00,75.8,73.9,29.92,North,355,0.0,0.0,94,0.61,RA,OVC,0.62,WeatherDisplay:10.37,2013-09-18 11:37:00,
2013-09-18 07:42:00,75.8,73.9,29.92,North,355,0.0,0.0,94,0.62,RA,OVC,0.62,WeatherDisplay:10.37,2013-09-18 11:42:00,
2013-09-18 07:47:00,75.8,73.9,29.92,North,355,0.0,0.0,94,0.63,RA,OVC,0.63,WeatherDisplay:10.37,2013-09-18 11:47:00,
2013-09-18 07:52:00,76.0,74.1,29.92,North,355,0.0,0.0,94,0.63,RA,OVC,0.63,WeatherDisplay:10.37,2013-09-18 11:52:00,
2013-09-18 07:57:00,76.0,74.1,29.92,North,355,0.0,0.0,94,0.64,RA,OVC,0.64,WeatherDisplay:10.37,2013-09-18 11:57:00,
2013-09-18 08:02:00,76.1,74.2,29.93,North,355,0.0,0.0,94,0.64,RA,OVC,0.65,WeatherDisplay:10.37,2013-09-18 12:02:00,
2013-09-18 08:07:00,76.3,74.4,29.93,North,355,0.0,0.0,94,0.44,RA,OVC,0.66,WeatherDisplay:10.37,2013-09-18 12:07:00,
2013-09-18 08:12:00,76.3,74.8,29.93,North,355,0.0,0.0,95,0.32,RA,OVC,0.68,WeatherDisplay:10.37,2013-09-18 12:12:00,
2013-09-18 08:18:00,76.5,75.0,29.93,North,355,0.0,0.0,95,0.21,RA,OVC,0.70,WeatherDisplay:10.37,2013-09-18 12:18:00,
2013-09-18 08:23:00,76.3,74.8,29.93,NNE,13,0.0,0.0,95,0.18,RA,OVC,0.72,WeatherDisplay:10.37,2013-09-18 12:23:00,
2013-09-18 08:28:00,76.1,74.2,29.93,SE,126,0.0,0.0,94,0.16,RA,OVC,0.72,WeatherDisplay:10.37,2013-09-18 12:28:00,
2013-09-18 08:33:00,75.6,73.8,29.95,SE,125,13.8,13.8,94,0.13,RA,OVC,0.73,WeatherDisplay:10.37,2013-09-18 12:33:00,
2013-09-18 08:38:00,75.4,73.9,29.95,SE,142,0.0,0.0,95,0.11,RA,OVC,0.73,WeatherDisplay:10.37,2013-09-18 12:38:00,
2013-09-18 08:43:00,75.4,73.9,29.95,SE,144,0.0,0.0,95,0.11,,OVC,0.73,WeatherDisplay:10.37,2013-09-18 12:43:00,
2013-09-18 08:48:00,75.3,73.8,29.95,SSE,152,0.0,0.0,95,0.10,,OVC,0.73,WeatherDisplay:10.37,2013-09-18 12:48:00,
2013-09-18 08:53:00,75.1,73.6,29.95,SSE,147,8.0,8.0,95,0.10,,OVC,0.73,WeatherDisplay:10.37,2013-09-18 12:53:00,
2013-09-18 08:58:00,74.9,73.4,29.95,SE,135,0.0,0.0,95,0.09,,OVC,0.73,WeatherDisplay:10.37,2013-09-18 12:58:00,
2013-09-18 09:03:00,74.7,73.2,29.95,SE,135,0.0,0.0,95,0.08,,OVC,0.73,WeatherDisplay:10.37,2013-09-18 13:03:00,
2013-09-18 09:08:00,74.9,73.4,29.95,SE,134,0.0,0.0,95,0.07,,OVC,0.73,WeatherDisplay:10.37,2013-09-18 13:08:00,
2013-09-18 09:13:00,74.9,73.4,29.95,SE,134,0.0,0.0,95,0.04,,OVC,0.73,WeatherDisplay:10.37,2013-09-18 13:13:00,
2013-09-18 09:18:00,74.9,73.4,29.96,SE,133,0.0,0.0,95,0.03,,OVC,0.73,WeatherDisplay:10.37,2013-09-18 13:18:00,
2013-09-18 09:23:00,74.9,73.4,29.96,SE,133,0.0,0.0,95,0.01,,OVC,0.73,WeatherDisplay:10.37,2013-09-18 13:23:00,
2013-09-18 09:28:00,74.9,73.4,29.96,SE,133,0.0,0.0,95,0.01,,OVC,0.73,WeatherDisplay:10.37,2013-09-18 13:28:00,
2013-09-18 09:33:00,74.7,73.2,29.97,SE,132,0.0,0.0,95,0.00,,OVC,0.73,WeatherDisplay:10.37,2013-09-18 13:33:00,
2013-09-18 09:38:00,74.7,73.2,29.97,SE,132,0.0,0.0,95,0.00,,OVC,0.73,WeatherDisplay:10.37,2013-09-18 13:38:00,
2013-09-18 09:43:00,74.9,73.4,29.97,SE,132,0.0,0.0,95,0.00,,OVC,0.73,WeatherDisplay:10.37,2013-09-18 13:43:00,
2013-09-18 09:48:00,74.9,73.4,29.96,SE,132,0.0,0.0,95,0.00,,OVC,0.73,WeatherDisplay:10.37,2013-09-18 13:48:00,
2013-09-18 09:53:00,75.1,73.6,29.96,SE,132,0.0,0.0,95,0.00,,OVC,0.73,WeatherDisplay:10.37,2013-09-18 13:53:00,
2013-09-18 09:58:00,75.3,73.8,29.96,SE,132,0.0,0.0,95,0.00,,OVC,0.73,WeatherDisplay:10.37,2013-09-18 13:58:00,
2013-09-18 10:03:00,75.4,73.9,29.96,SE,132,0.0,0.0,95,0.00,,OVC,0.73,WeatherDisplay:10.37,2013-09-18 14:03:00,
2013-09-18 10:08:00,75.8,74.3,29.96,SE,132,0.0,0.0,95,0.00,,OVC,0.73,WeatherDisplay:10.37,2013-09-18 14:08:00,
2013-09-18 10:13:00,76.0,74.5,29.96,ENE,63,0.0,0.0,95,0.00,,OVC,0.73,WeatherDisplay:10.37,2013-09-18 14:13:00,
2013-09-18 10:18:00,76.1,74.6,29.97,ENE,59,0.0,0.0,95,0.00,,OVC,0.73,WeatherDisplay:10.37,2013-09-18 14:18:00,
2013-09-18 10:23:00,76.1,74.6,29.97,ENE,74,9.2,0.0,95,0.00,,OVC,0.73,WeatherDisplay:10.37,2013-09-18 14:23:00,
2013-09-18 10:28:00,76.5,75.0,29.97,ENE,65,2.0,2.0,95,0.00,,OVC,0.73,WeatherDisplay:10.37,2013-09-18 14:28:00,
2013-09-18 10:33:00,76.8,75.3,29.98,ENE,59,0.0,0.0,95,0.00,,OVC,0.73,WeatherDisplay:10.37,2013-09-18 14:33:00,
2013-09-18 10:38:00,77.2,75.7,29.98,ENE,65,0.0,0.0,95,0.00,,OVC,0.73,WeatherDisplay:10.37,2013-09-18 14:38:00,
2013-09-18 10:43:00,77.4,75.5,29.98,ENE,69,0.0,0.0,94,0.00,,OVC,0.73,WeatherDisplay:10.37,2013-09-18 14:43:00,
2013-09-18 10:48:00,77.4,75.2,29.97,ENE,72,0.0,0.0,93,0.00,,OVC,0.73,WeatherDisplay:10.37,2013-09-18 14:48:00,
2013-09-18 10:53:00,77.4,74.9,29.97,ENE,66,0.0,0.9,92,0.00,,OVC,0.73,WeatherDisplay:10.37,2013-09-18 14:53:00,
2013-09-18 10:58:00,77.4,74.9,29.97,ENE,67,0.0,0.0,92,0.00,,OVC,0.73,WeatherDisplay:10.37,2013-09-18 14:58:00,
2013-09-18 11:04:00,77.7,74.9,29.97,SE,140,0.0,0.0,91,0.00,,OVC,0.73,WeatherDisplay:10.37,2013-09-18 15:04:00,
2013-09-18 11:09:00,78.1,75.3,29.97,ENE,61,0.0,0.0,91,0.00,,OVC,0.73,WeatherDisplay:10.37,2013-09-18 15:09:00,
2013-09-18 11:13:00,78.6,75.8,29.97,ENE,59,10.4,10.4,91,0.00,,OVC,0.73,WeatherDisplay:10.37,2013-09-18 15:13:00,
2013-09-18 11:18:00,78.8,75.3,29.96,ENE,71,16.1,16.1,89,0.00,,OVC,0.73,WeatherDisplay:10.37,2013-09-18 15:18:00,
2013-09-18 11:23:00,79.0,75.5,29.96,NE,55,16.1,16.1,89,0.00,,OVC,0.73,WeatherDisplay:10.37,2013-09-18 15:23:00,
2013-09-18 11:28:00,79.2,75.3,29.96,NE,48,0.0,0.0,88,0.00,,OVC,0.73,WeatherDisplay:10.37,2013-09-18 15:28:00,
2013-09-18 11:34:00,79.9,75.7,29.96,SE,146,6.9,6.9,87,0.00,,OVC,0.73,WeatherDisplay:10.37,2013-09-18 15:34:00,
2013-09-18 11:39:00,80.1,74.8,29.96,East,91,11.5,11.5,84,0.00,,OVC,0.73,WeatherDisplay:10.37,2013-09-18 15:39:00,
2013-09-18 11:44:00,80.3,74.3,29.96,ENE,58,0.0,0.5,82,0.00,,OVC,0.73,WeatherDisplay:10.37,2013-09-18 15:44:00,
2013-09-18 11:49:00,80.3,73.2,29.96,NE,49,8.1,0.0,79,0.00,,OVC,0.73,WeatherDisplay:10.37,2013-09-18 15:49:00,
2013-09-18 11:54:00,80.5,73.4,29.96,NE,49,0.0,0.0,79,0.00,,OVC,0.73,WeatherDisplay:10.37,2013-09-18 15:54:00,
2013-09-18 11:59:00,80.9,73.4,29.96,ENE,75,0.0,0.0,78,0.00,,OVC,0.73,WeatherDisplay:10.37,2013-09-18 15:59:00,
2013-09-18 12:01:00,81.2,73.7,29.95,ENE,67,0.0,0.0,78,0.00,,OVC,0.73,WeatherDisplay:10.37,2013-09-18 16:01:00,
2013-09-18 12:06:00,81.4,73.9,29.95,ENE,69,1.2,1.2,78,0.00,,OVC,0.73,WeatherDisplay:10.37,2013-09-18 16:06:00,
2013-09-18 12:11:00,81.4,73.5,29.95,ENE,78,11.5,11.5,77,0.00,,OVC,0.73,WeatherDisplay:10.37,2013-09-18 16:11:00,
2013-09-18 12:17:00,81.4,73.9,29.95,ENE,76,6.9,0.0,78,0.00,,OVC,0.73,WeatherDisplay:10.37,2013-09-18 16:17:00,
2013-09-18 12:22:00,81.4,73.9,29.95,ENE,62,0.0,0.0,78,0.00,,OVC,0.73,WeatherDisplay:10.37,2013-09-18 16:22:00,
2013-09-18 12:27:00,81.2,73.7,29.95,NE,55,16.1,16.1,78,0.00,,OVC,0.73,WeatherDisplay:10.37,2013-09-18 16:27:00,
2013-09-18 12:32:00,81.2,73.7,29.95,ENE,64,0.0,0.0,78,0.00,,OVC,0.73,WeatherDisplay:10.37,2013-09-18 16:32:00,
2013-09-18 12:37:00,81.6,73.7,29.95,NNE,19,11.0,11.0,77,0.00,,OVC,0.73,WeatherDisplay:10.37,2013-09-18 16:37:00,
2013-09-18 12:42:00,81.8,73.9,29.95,NE,35,0.0,0.0,77,0.00,,OVC,0.73,WeatherDisplay:10.37,2013-09-18 16:42:00,
2013-09-18 12:47:00,82.4,74.1,29.95,East,92,0.0,0.0,76,0.00,,OVC,0.73,WeatherDisplay:10.37,2013-09-18 16:47:00,
2013-09-18 12:52:00,83.0,75.0,29.95,ESE,121,0.0,0.0,77,0.00,,OVC,0.73,WeatherDisplay:10.37,2013-09-18 16:52:00,
2013-09-18 12:57:00,83.2,74.4,29.95,ENE,67,0.0,0.0,75,0.00,,OVC,0.73,WeatherDisplay:10.37,2013-09-18 16:57:00,
2013-09-18 13:02:00,83.4,74.6,29.95,NE,55,3.5,3.5,75,0.00,,OVC,0.73,WeatherDisplay:10.37,2013-09-18 17:02:00,
2013-09-18 13:07:00,83.8,74.6,29.95,ENE,65,0.0,0.0,74,0.00,,OVC,0.73,WeatherDisplay:10.37,2013-09-18 17:07:00,
2013-09-18 13:12:00,84.0,74.4,29.95,ENE,59,11.5,11.5,73,0.00,,OVC,0.73,WeatherDisplay:10.37,2013-09-18 17:12:00,
2013-09-18 13:17:00,84.3,74.3,29.95,NE,52,2.3,2.3,72,0.00,,OVC,0.73,WeatherDisplay:10.37,2013-09-18 17:17:00,
2013-09-18 13:22:00,84.7,74.7,29.95,East,95,0.0,0.0,72,0.00,,OVC,0.73,WeatherDisplay:10.37,2013-09-18 17:22:00,
2013-09-18 13:28:00,85.1,74.6,29.95,ESE,102,0.0,0.0,71,0.00,,OVC,0.73,WeatherDisplay:10.37,2013-09-18 17:28:00,
2013-09-18 13:33:00,85.3,74.0,29.94,ENE,73,3.5,3.5,69,0.00,,OVC,0.73,WeatherDisplay:10.37,2013-09-18 17:33:00,
2013-09-18 13:38:00,85.5,74.6,29.94,East,86,0.0,0.1,70,0.00,,OVC,0.73,WeatherDisplay:10.37,2013-09-18 17:38:00,
2013-09-18 13:43:00,85.7,74.4,29.94,ENE,67,0.0,0.0,69,0.00,,OVC,0.73,WeatherDisplay:10.37,2013-09-18 17:43:00,
2013-09-18 13:48:00,86.3,74.5,29.94,ENE,75,0.0,0.0,68,0.00,,OVC,0.73,WeatherDisplay:10.37,2013-09-18 17:48:00,
2013-09-18 13:53:00,86.5,74.2,29.94,SSE,148,0.0,0.0,67,0.00,,OVC,0.73,WeatherDisplay:10.37,2013-09-18 17:53:00,
2013-09-18 13:59:00,86.5,74.7,29.94,SE,142,0.0,0.0,68,0.00,,OVC,0.73,WeatherDisplay:10.37,2013-09-18 17:59:00,
2013-09-18 14:04:00,86.3,74.5,29.93,NE,41,13.8,13.8,68,0.00,,OVC,0.73,WeatherDisplay:10.37,2013-09-18 18:04:00,
2013-09-18 14:09:00,85.9,73.7,29.93,NE,45,0.0,0.0,67,0.00,,OVC,0.73,WeatherDisplay:10.37,2013-09-18 18:09:00,
2013-09-18 14:14:00,86.3,74.0,29.93,NE,51,18.4,18.4,67,0.00,,OVC,0.73,WeatherDisplay:10.37,2013-09-18 18:14:00,
2013-09-18 14:19:00,85.3,73.1,29.93,NNE,30,11.5,11.5,67,0.00,,OVC,0.73,WeatherDisplay:10.37,2013-09-18 18:19:00,
2013-09-18 14:24:00,85.3,74.0,29.93,East,81,0.0,0.0,69,0.00,,OVC,0.73,WeatherDisplay:10.37,2013-09-18 18:24:00,
2013-09-18 14:29:00,85.7,73.9,29.93,ENE,76,9.2,9.2,68,0.00,,OVC,0.73,WeatherDisplay:10.37,2013-09-18 18:29:00,
2013-09-18 14:34:00,85.9,74.5,29.93,ENE,64,0.0,0.0,69,0.00,,OVC,0.73,WeatherDisplay:10.37,2013-09-18 18:34:00,
2013-09-18 14:39:00,85.9,74.1,29.93,ENE,67,13.8,13.8,68,0.00,,OVC,0.73,WeatherDisplay:10.37,2013-09-18 18:39:00,
2013-09-18 14:44:00,85.7,73.9,29.93,East,82,6.9,6.9,68,0.00,,OVC,0.73,WeatherDisplay:10.37,2013-09-18 18:44:00,
2013-09-18 14:49:00,85.5,74.6,29.93,NE,43,8.1,8.1,70,0.00,,OVC,0.73,WeatherDisplay:10.37,2013-09-18 18:49:00,
2013-09-18 14:55:00,85.1,73.3,29.93,ENE,76,0.0,0.0,68,0.00,,OVC,0.73,WeatherDisplay:10.37,2013-09-18 18:55:00,
2013-09-18 15:00:00,85.1,73.8,29.92,ENE,61,19.6,19.6,69,0.00,,OVC,0.73,WeatherDisplay:10.37,2013-09-18 19:00:00,
2013-09-18 15:05:00,84.9,74.0,29.92,ENE,75,12.7,12.7,70,0.00,,OVC,0.73,WeatherDisplay:10.37,2013-09-18 19:05:00,
2013-09-18 15:10:00,85.3,73.5,29.92,NE,49,11.5,0.0,68,0.00,,OVC,0.73,WeatherDisplay:10.37,2013-09-18 19:10:00,
2013-09-18 15:15:00,85.9,74.5,29.91,NE,55,11.5,11.5,69,0.00,,OVC,0.73,WeatherDisplay:10.37,2013-09-18 19:15:00,
2013-09-18 15:20:00,85.9,74.5,29.91,ENE,59,8.1,8.1,69,0.00,,OVC,0.73,WeatherDisplay:10.37,2013-09-18 19:20:00,
2013-09-18 15:25:00,85.3,74.8,29.91,ENE,77,3.5,3.5,71,0.00,,OVC,0.73,WeatherDisplay:10.37,2013-09-18 19:25:00,
2013-09-18 15:30:00,85.5,73.7,29.91,SE,124,0.0,0.0,68,0.00,,OVC,0.73,WeatherDisplay:10.37,2013-09-18 19:30:00,
2013-09-18 15:35:00,85.9,74.1,29.91,ENE,58,0.0,0.7,68,0.00,,OVC,0.73,WeatherDisplay:10.37,2013-09-18 19:35:00,
2013-09-18 15:40:00,85.5,74.2,29.91,NE,53,15.0,15.0,69,0.00,,OVC,0.73,WeatherDisplay:10.37,2013-09-18 19:40:00,
2013-09-18 15:45:00,84.9,73.2,29.92,ENE,58,12.7,12.7,68,0.00,,OVC,0.73,WeatherDisplay:10.37,2013-09-18 19:45:00,
2013-09-18 15:50:00,84.5,72.3,29.92,North,5,5.8,5.8,67,0.00,,OVC,0.73,WeatherDisplay:10.37,2013-09-18 19:50:00,
2013-09-18 15:55:00,84.7,71.6,29.92,NE,44,11.5,11.5,65,0.00,,OVC,0.73,WeatherDisplay:10.37,2013-09-18 19:55:00,
2013-09-18 16:00:00,85.1,72.0,29.92,ENE,57,12.0,12.0,65,0.00,,OVC,0.73,WeatherDisplay:10.37,2013-09-18 20:00:00,
2013-09-18 16:05:00,85.3,72.6,29.92,NE,53,0.0,0.0,66,0.00,,OVC,0.73,WeatherDisplay:10.37,2013-09-18 20:05:00,
2013-09-18 16:10:00,85.5,72.8,29.92,ENE,60,3.5,3.5,66,0.00,,OVC,0.73,WeatherDisplay:10.37,2013-09-18 20:10:00,
2013-09-18 16:15:00,85.3,72.6,29.91,ENE,65,19.6,19.6,66,0.00,,OVC,0.73,WeatherDisplay:10.37,2013-09-18 20:15:00,
2013-09-18 16:20:00,84.5,72.8,29.91,East,97,12.7,12.7,68,0.00,,OVC,0.73,WeatherDisplay:10.37,2013-09-18 20:20:00,
2013-09-18 16:25:00,84.3,72.6,29.91,ENE,63,10.4,10.4,68,0.00,,OVC,0.73,WeatherDisplay:10.37,2013-09-18 20:25:00,
2013-09-18 16:30:00,84.3,72.6,29.91,ENE,65,2.3,2.3,68,0.00,,OVC,0.73,WeatherDisplay:10.37,2013-09-18 20:30:00,
2013-09-18 16:35:00,84.3,73.0,29.91,ESE,102,0.0,0.0,69,0.00,,OVC,0.73,WeatherDisplay:10.37,2013-09-18 20:35:00,
2013-09-18 16:40:00,84.3,73.0,29.91,East,89,6.0,6.0,69,0.00,,OVC,0.73,WeatherDisplay:10.37,2013-09-18 20:40:00,
2013-09-18 16:45:00,84.1,73.3,29.91,NE,49,6.9,6.9,70,0.00,,OVC,0.73,WeatherDisplay:10.37,2013-09-18 20:45:00,
2013-09-18 16:50:00,84.0,73.2,29.91,NE,47,13.8,13.8,70,0.00,,OVC,0.73,WeatherDisplay:10.37,2013-09-18 20:50:00,
2013-09-18 16:55:00,83.6,73.2,29.91,ENE,65,11.5,11.5,71,0.00,,OVC,0.73,WeatherDisplay:10.37,2013-09-18 20:55:00,
2013-09-18 17:01:00,83.4,72.6,29.92,NE,50,11.5,11.5,70,0.00,,OVC,0.73,WeatherDisplay:10.37,2013-09-18 21:01:00,
2013-09-18 17:06:00,83.0,72.6,29.92,NE,55,11.5,11.5,71,0.00,,OVC,0.73,WeatherDisplay:10.37,2013-09-18 21:06:00,
2013-09-18 17:11:00,82.8,72.4,29.92,NE,34,12.7,12.7,71,0.00,,OVC,0.73,WeatherDisplay:10.37,2013-09-18 21:11:00,
2013-09-18 17:16:00,82.6,72.7,29.93,NE,53,12.7,12.7,72,0.00,,OVC,0.73,WeatherDisplay:10.37,2013-09-18 21:16:00,
2013-09-18 17:21:00,82.6,72.7,29.93,ENE,73,16.0,16.0,72,0.00,,OVC,0.73,WeatherDisplay:10.37,2013-09-18 21:21:00,
2013-09-18 17:26:00,82.4,72.9,29.93,NNE,26,11.5,11.5,73,0.00,,OVC,0.73,WeatherDisplay:10.37,2013-09-18 21:26:00,
2013-09-18 17:31:00,82.4,73.3,29.92,ENE,72,11.5,11.5,74,0.00,,OVC,0.73,WeatherDisplay:10.37,2013-09-18 21:31:00,
2013-09-18 17:36:00,82.2,73.1,29.92,ENE,59,11.5,11.5,74,0.00,,OVC,0.73,WeatherDisplay:10.37,2013-09-18 21:36:00,
2013-09-18 17:41:00,82.0,73.3,29.92,NE,55,0.0,1.0,75,0.00,,OVC,0.73,WeatherDisplay:10.37,2013-09-18 21:41:00,
2013-09-18 17:46:00,81.8,73.1,29.92,ENE,74,12.7,12.7,75,0.00,,OVC,0.73,WeatherDisplay:10.37,2013-09-18 21:46:00,
2013-09-18 17:51:00,81.6,73.3,29.92,ENE,67,0.0,0.0,76,0.00,,OVC,0.73,WeatherDisplay:10.37,2013-09-18 21:51:00,
2013-09-18 17:56:00,81.6,73.7,29.92,ENE,67,0.0,0.0,77,0.00,,OVC,0.73,WeatherDisplay:10.37,2013-09-18 21:56:00,
2013-09-18 18:01:00,81.4,73.9,29.92,ENE,67,0.0,0.0,78,0.00,,OVC,0.73,WeatherDisplay:10.37,2013-09-18 22:01:00,
2013-09-18 18:06:00,81.2,73.7,29.92,ENE,65,0.0,0.0,78,0.00,,OVC,0.73,WeatherDisplay:10.37,2013-09-18 22:06:00,
2013-09-18 18:11:00,81.2,73.7,29.92,ENE,67,8.1,8.1,78,0.00,,OVC,0.73,WeatherDisplay:10.37,2013-09-18 22:11:00,
2013-09-18 18:16:00,81.1,73.6,29.92,East,79,2.3,2.3,78,0.00,,OVC,0.73,WeatherDisplay:10.37,2013-09-18 22:16:00,
2013-09-18 18:21:00,81.1,74.0,29.92,ENE,76,0.0,0.0,79,0.00,,OVC,0.73,WeatherDisplay:10.37,2013-09-18 22:21:00,
2013-09-18 18:26:00,81.1,74.0,29.92,NNE,32,12.7,12.7,79,0.00,,OVC,0.73,WeatherDisplay:10.37,2013-09-18 22:26:00,
2013-09-18 18:31:00,81.1,74.0,29.93,NE,40,3.5,0.0,79,0.00,,OVC,0.73,WeatherDisplay:10.37,2013-09-18 22:31:00,
2013-09-18 18:36:00,80.9,73.4,29.93,ENE,63,8.1,8.1,78,0.00,,OVC,0.73,WeatherDisplay:10.37,2013-09-18 22:36:00,
2013-09-18 18:41:00,80.9,73.8,29.93,ENE,63,0.0,0.0,79,0.00,,OVC,0.73,WeatherDisplay:10.37,2013-09-18 22:41:00,
2013-09-18 18:46:00,80.9,73.8,29.93,ENE,63,0.0,0.0,79,0.00,,OVC,0.73,WeatherDisplay:10.37,2013-09-18 22:46:00,
2013-09-18 18:51:00,80.7,73.6,29.93,ENE,63,0.0,0.0,79,0.00,,OVC,0.73,WeatherDisplay:10.37,2013-09-18 22:51:00,
2013-09-18 18:56:00,80.7,74.0,29.93,ENE,63,0.0,0.0,80,0.00,,OVC,0.73,WeatherDisplay:10.37,2013-09-18 22:56:00,
2013-09-18 19:01:00,80.7,74.0,29.93,ENE,65,0.0,0.0,80,0.00,,OVC,0.73,WeatherDisplay:10.37,2013-09-18 23:01:00,
2013-09-18 19:06:00,80.7,73.6,29.93,ENE,66,0.0,0.0,79,0.00,,OVC,0.73,WeatherDisplay:10.37,2013-09-18 23:06:00,
2013-09-18 19:11:00,80.9,74.1,29.93,ENE,65,0.0,0.0,80,0.00,,OVC,0.73,WeatherDisplay:10.37,2013-09-18 23:11:00,
2013-09-18 19:16:00,80.9,73.8,29.93,ENE,64,0.0,0.0,79,0.00,,OVC,0.73,WeatherDisplay:10.37,2013-09-18 23:16:00,
2013-09-18 19:22:00,80.9,73.8,29.93,ENE,64,0.0,0.0,79,0.00,,OVC,0.73,WeatherDisplay:10.37,2013-09-18 23:22:00,
2013-09-18 19:27:00,80.9,74.1,29.93,ENE,64,0.0,0.0,80,0.00,,OVC,0.73,WeatherDisplay:10.37,2013-09-18 23:27:00,
2013-09-18 19:32:00,80.7,74.0,29.93,ENE,64,0.0,0.0,80,0.00,,OVC,0.73,WeatherDisplay:10.37,2013-09-18 23:32:00,
2013-09-18 19:37:00,80.7,74.0,29.93,ENE,63,0.0,0.0,80,0.00,,OVC,0.73,WeatherDisplay:10.37,2013-09-18 23:37:00,
2013-09-18 19:42:00,80.5,73.4,29.93,NE,38,0.0,0.0,79,0.00,,OVC,0.73,WeatherDisplay:10.37,2013-09-18 23:42:00,
2013-09-18 19:47:00,80.5,73.8,29.94,NE,38,0.0,0.0,80,0.00,,OVC,0.73,WeatherDisplay:10.37,2013-09-18 23:47:00,
2013-09-18 19:52:00,80.3,73.6,29.94,NE,38,0.0,0.0,80,0.00,,OVC,0.73,WeatherDisplay:10.37,2013-09-18 23:52:00,
2013-09-18 19:57:00,80.3,73.6,29.94,NE,38,0.0,0.0,80,0.00,,OVC,0.73,WeatherDisplay:10.37,2013-09-18 23:57:00,
2013-09-18 20:02:00,80.1,73.4,29.94,NE,38,0.0,0.0,80,0.00,,OVC,0.73,WeatherDisplay:10.37,2013-09-19 00:02:00,
2013-09-18 20:07:00,79.9,73.2,29.94,NE,38,0.0,0.0,80,0.00,,OVC,0.73,WeatherDisplay:10.37,2013-09-19 00:07:00,
2013-09-18 20:12:00,79.8,73.4,29.94,NE,38,0.0,0.0,81,0.00,,OVC,0.73,WeatherDisplay:10.37,2013-09-19 00:12:00,
2013-09-18 20:17:00,79.8,73.4,29.94,NE,38,0.0,0.0,81,0.00,,OVC,0.73,WeatherDisplay:10.37,2013-09-19 00:17:00,
2013-09-18 20:22:00,79.6,73.6,29.94,NE,38,0.0,0.0,82,0.00,,OVC,0.73,WeatherDisplay:10.37,2013-09-19 00:22:00,
2013-09-18 20:27:00,79.6,74.0,29.94,NE,38,0.0,0.0,83,0.00,,OVC,0.73,WeatherDisplay:10.37,2013-09-19 00:27:00,
2013-09-18 20:32:00,79.6,74.0,29.95,NE,38,0.0,0.0,83,0.00,,OVC,0.73,WeatherDisplay:10.37,2013-09-19 00:32:00,
2013-09-18 20:37:00,79.4,73.8,29.95,NE,38,0.0,0.0,83,0.00,,OVC,0.73,WeatherDisplay:10.37,2013-09-19 00:37:00,
2013-09-18 20:42:00,79.4,73.8,29.95,NE,38,0.0,0.0,83,0.00,,OVC,0.73,WeatherDisplay:10.37,2013-09-19 00:42:00,
2013-09-18 20:47:00,79.4,74.1,29.96,NE,38,0.0,0.0,84,0.00,,OVC,0.73,WeatherDisplay:10.37,2013-09-19 00:47:00,
2013-09-18 20:52:00,79.4,74.1,29.96,NE,38,0.0,0.0,84,0.00,,OVC,0.73,WeatherDisplay:10.37,2013-09-19 00:52:00,
2013-09-18 20:57:00,79.2,73.9,29.96,NE,38,0.0,0.0,84,0.00,,OVC,0.73,WeatherDisplay:10.37,2013-09-19 00:57:00,
2013-09-18 21:02:00,79.2,73.9,29.97,NE,38,0.0,0.0,84,0.00,,OVC,0.73,WeatherDisplay:10.37,2013-09-19 01:02:00,
2013-09-18 21:07:00,79.2,73.9,29.97,NW,318,0.0,0.0,84,0.00,,OVC,0.73,WeatherDisplay:10.37,2013-09-19 01:07:00,
2013-09-18 21:12:00,79.0,73.7,29.97,NW,318,0.0,0.0,84,0.00,,OVC,0.73,WeatherDisplay:10.37,2013-09-19 01:12:00,
2013-09-18 21:17:00,79.0,73.7,29.98,WSW,237,3.0,3.0,84,0.00,,OVC,0.73,WeatherDisplay:10.37,2013-09-19 01:17:00,
2013-09-18 21:22:00,78.6,73.0,29.98,WSW,242,19.6,19.6,83,0.00,,OVC,0.73,WeatherDisplay:10.37,2013-09-19 01:22:00,
2013-09-18 21:27:00,78.1,72.9,29.98,WSW,238,19.6,19.6,84,0.00,,OVC,0.73,WeatherDisplay:10.37,2013-09-19 01:27:00,
2013-09-18 21:32:00,77.6,72.4,29.98,WNW,295,19.6,19.6,84,0.00,,OVC,0.73,WeatherDisplay:10.37,2013-09-19 01:32:00,
2013-09-18 21:38:00,77.2,72.0,29.98,NW,306,9.2,9.2,84,0.00,,OVC,0.73,WeatherDisplay:10.37,2013-09-19 01:38:00,
2013-09-18 21:43:00,76.8,71.9,29.98,WSW,253,12.7,12.7,85,0.00,,OVC,0.73,WeatherDisplay:10.37,2013-09-19 01:43:00,
2013-09-18 21:48:00,76.7,71.8,29.98,WSW,237,12.7,12.7,85,0.00,,OVC,0.73,WeatherDisplay:10.37,2013-09-19 01:48:00,
2013-09-18 21:53:00,76.5,71.7,29.98,WSW,248,4.0,4.0,85,0.00,,OVC,0.73,WeatherDisplay:10.37,2013-09-19 01:53:00,
2013-09-18 21:58:00,76.1,70.6,29.98,WSW,254,20.7,20.7,83,0.00,,OVC,0.73,WeatherDisplay:10.37,2013-09-19 01:58:00,
2013-09-18 22:03:00,76.0,70.5,29.98,WSW,256,11.5,11.5,83,0.00,CLR,OVC,0.73,WeatherDisplay:10.37,2013-09-19 02:03:00,
2013-09-18 22:08:00,76.0,70.5,29.98,West,279,10.4,10.4,83,0.00,CLR,OVC,0.73,WeatherDisplay:10.37,2013-09-19 02:08:00,
2013-09-18 22:13:00,76.0,70.5,29.98,NNW,333,8.1,8.1,83,0.00,CLR,OVC,0.73,WeatherDisplay:10.37,2013-09-19 02:13:00,
2013-09-18 22:18:00,76.1,70.9,29.98,WNW,298,4.6,0.0,84,0.00,CLR,OVC,0.73,WeatherDisplay:10.37,2013-09-19 02:18:00,
2013-09-18 22:23:00,76.1,71.3,29.98,WNW,300,0.0,0.0,85,0.00,CLR,OVC,0.73,WeatherDisplay:10.37,2013-09-19 02:23:00,
2013-09-18 22:28:00,76.0,71.2,29.98,WNW,300,0.0,0.0,85,0.02,RA,OVC,0.75,WeatherDisplay:10.37,2013-09-19 02:28:00,
2013-09-18 22:33:00,76.0,71.8,29.99,WNW,299,0.0,0.0,87,0.06,RA,OVC,0.80,WeatherDisplay:10.37,2013-09-19 02:33:00,
2013-09-18 22:39:00,75.6,71.5,29.99,WNW,298,0.0,0.0,87,0.12,RA,OVC,0.85,WeatherDisplay:10.37,2013-09-19 02:39:00,
2013-09-18 22:44:00,75.3,71.5,29.99,WNW,292,0.0,0.0,88,0.12,RA,OVC,0.86,WeatherDisplay:10.37,2013-09-19 02:44:00,
2013-09-18 22:49:00,75.1,71.6,29.98,WSW,256,0.0,0.0,89,0.13,RA,OVC,0.86,WeatherDisplay:10.37,2013-09-19 02:49:00,
2013-09-18 22:54:00,74.9,71.4,29.98,WNW,284,0.0,0.0,89,0.13,RA,OVC,0.86,WeatherDisplay:10.37,2013-09-19 02:54:00,
2013-09-18 22:59:00,74.9,71.8,29.98,NNW,327,11.0,11.0,90,0.13,CLR,OVC,0.86,WeatherDisplay:10.37,2013-09-19 02:59:00,
2013-09-18 23:04:00,74.7,71.6,29.97,NW,318,12.0,12.0,90,0.13,,OVC,0.86,WeatherDisplay:10.37,2013-09-19 03:04:00,
2013-09-18 23:09:00,74.6,71.8,29.97,NW,325,9.2,9.2,91,0.13,,OVC,0.86,WeatherDisplay:10.37,2013-09-19 03:09:00,
2013-09-18 23:14:00,74.6,72.1,29.96,WNW,296,0.0,0.0,92,0.13,,OVC,0.86,WeatherDisplay:10.37,2013-09-19 03:14:00,
2013-09-18 23:19:00,74.6,72.1,29.96,WNW,297,0.0,0.0,92,0.13,,OVC,0.86,WeatherDisplay:10.37,2013-09-19 03:19:00,
2013-09-18 23:24:00,74.4,71.9,29.96,WNW,297,0.0,0.0,92,0.13,,OVC,0.86,WeatherDisplay:10.37,2013-09-19 03:24:00,
2013-09-18 23:29:00,74.4,71.9,29.96,WNW,297,0.0,0.0,92,0.10,,OVC,0.86,WeatherDisplay:10.37,2013-09-19 03:29:00,
2013-09-18 23:34:00,74.6,72.1,29.96,WNW,297,0.0,0.0,92,0.05,,OVC,0.86,WeatherDisplay:10.37,2013-09-19 03:34:00,
2013-09-18 23:39:00,74.6,72.4,29.96,WNW,297,0.0,0.0,93,0.01,,OVC,0.86,WeatherDisplay:10.37,2013-09-19 03:39:00,
2013-09-18 23:44:00,74.6,72.1,29.95,WNW,297,0.0,0.0,92,0.00,,OVC,0.86,WeatherDisplay:10.37,2013-09-19 03:44:00,
2013-09-18 23:49:00,74.6,72.4,29.95,WNW,297,0.0,0.0,93,0.00,,OVC,0.86,WeatherDisplay:10.37,2013-09-19 03:49:00,
2013-09-18 23:54:00,74.4,72.2,29.95,WNW,297,0.0,0.0,93,0.00,,OVC,0.86,WeatherDisplay:10.37,2013-09-19 03:54:00,
2013-09-18 23:59:00,74.6,72.4,29.96,WNW,297,0.0,0.0,93,0.00,,OVC,0.86,WeatherDisplay:10.37,2013-09-19 03:59:00,